Flight Track Log - Related Links

Times and Time Zones

All times are in EDT time to prevent confusion due to time zone crossing. See the LBQ792 flight status page for this flight to view local times or setup timezone preferences in your user account.

Time Position Orientation Groundspeed Altitude Reporting Facility
EDT Latitude Longitude Course Direction KTS MPH feet Rate Location/Type
Tue 09:24:00 PM 42.3779 -76.6958 30° Northeast  Level FlightAware Approximate
Tue 09:24:41 PM 42.3781 -76.7747 30° Northeast 239 275 7,000  Level Boston Center
Tue 09:25:00 PM 42.4164 -76.6654 30° Northeast  Level FlightAware Approximate
Tue 09:25:05 PM 42.3997 -76.7508 39° Northeast 240 276 7,000  Level Boston Center
Tue 09:26:00 PM 42.4548 -76.6350 30° Northeast  Level FlightAware Approximate
Tue 09:26:05 PM 42.4603 -76.6986 32° Northeast 242 278 7,000  Level Boston Center
Tue 09:27:00 PM 42.4933 -76.6045 30° Northeast  Level FlightAware Approximate
Tue 09:27:06 PM 42.5142 -76.6461 36° Northeast 241 277 7,000  Level Boston Center
Tue 09:28:00 PM 42.5317 -76.5740 30° Northeast  Level FlightAware Approximate
Tue 09:28:07 PM 42.5703 -76.5992 32° Northeast 242 278 7,000  Level Boston Center
Tue 09:29:00 PM 42.5701 -76.5435 30° Northeast  Level FlightAware Approximate
Tue 09:29:07 PM 42.6264 -76.5464 35° Northeast 241 277 7,000  Level Boston Center
Tue 09:30:00 PM 42.6086 -76.5130 30° Northeast  Level FlightAware Approximate
Tue 09:30:08 PM 42.6822 -76.4992 32° Northeast 241 277 7,000  Level Boston Center
Tue 09:31:08 PM 42.7383 -76.4436 36° Northeast 242 278 7,000  Level Boston Center
Tue 09:32:09 PM 42.7964 -76.3964 31° Northeast 241 277 7,000  Level Boston Center
Tue 09:33:10 PM 42.8503 -76.3431 36° Northeast 242 278 7,000 -694 Level Boston Center
Tue 09:34:10 PM 42.9128 -76.2875 33° Northeast 258 297 5,600 -1,388 Descending Boston Center
Tue 09:35:11 PM 42.9772 -76.2264 35° Northeast 277 319 4,200 -992 Descending Boston Center
Tue 09:36:11 PM 43.0475 -76.1881 22° Northeast 272 313 3,600 -1,190 Descending Boston Center
Tue 09:37:12 PM 43.1003 -76.1628 19° North 182 209 1,800 -1,770 Descending Boston Center
Tue 09:39:00 PM 43.1000 -76.1000 36° Northeast  Level FlightAware Approximate
Tue 09:46:00 PM 43.1112 -76.1063 36° Northeast  Level Estimated
Tue 09:47:00 PM 43.1112 -76.1063 36° Northeast  Level Estimated
Tue 09:48:00 PM 43.1112 -76.1063 36° Northeast  Level Estimated
Tue 09:49:00 PM 43.1112 -76.1063 36° Northeast  Level Estimated
Tue 09:50:00 PM 43.1112 -76.1063 36° Northeast  Level Estimated
Tue 09:51:00 PM 43.1112 -76.1063 36° Northeast  Level Estimated

Login

Don't have an account? Register now (free) for customized features, flight alerts, and more!